Terminal Aerodrome Forecast
Issued by NWS

Home | Current Version | Previous Version | Text Only | Print | Product List | Glossary On
Versions: 1 2 3 4 5 6 7 8 9 10 11 12 13 14 15 16
000
FTUS42 KFFC 101123
TAFPDK
TAF
KPDK 101123Z 1012/1112 33004KT P6SM SKC
     FM101400 03004KT P6SM SKC
     FM101800 06005KT P6SM SKC
     FM110000 09003KT P6SM FEW250=

USA.gov is the U.S. government's official web portal to all federal, state and local government web resources and services.